Terminal Aerodrome Forecast
Issued by NWS San Angelo, TX

Home | Current Version | Previous Version | Text Only | Print | Product List | Glossary On
Versions: 1 2 3 4 5 6 7 8 9 10 11 12 13 14
000
FTUS44 KSJT 202300 RRA
TAFSJT
TAF
KSJT 202342Z 2100/2124 20009KT P6SM SCT250
     FM210700 19008KT P6SM BKN012
      TEMPO 2110/2114 BKN007
     FM211600 19010KT P6SM BKN022
     FM211900 19011KT P6SM BKN035=

USA.gov is the U.S. government's official web portal to all federal, state and local government web resources and services.